sensor_id;sensor_type;location;lat;lon;timestamp;temperature;humidity
26537;DHT22;14204;51.262;5.488;2023-02-15T00:01:45;4.60;99.90
26537;DHT22;14204;51.262;5.488;2023-02-15T00:04:20;4.70;99.90
26537;DHT22;14204;51.262;5.488;2023-02-15T00:06:46;4.70;99.90
26537;DHT22;14204;51.262;5.488;2023-02-15T00:09:12;4.60;99.90
26537;DHT22;14204;51.262;5.488;2023-02-15T00:11:39;4.60;99.90
26537;DHT22;14204;51.262;5.488;2023-02-15T00:14:18;4.60;99.90
26537;DHT22;14204;51.262;5.488;2023-02-15T00:16:45;4.50;99.90
26537;DHT22;14204;51.262;5.488;2023-02-15T00:19:12;4.50;99.90
26537;DHT22;14204;51.262;5.488;2023-02-15T00:21:39;4.50;99.90
26537;DHT22;14204;51.262;5.488;2023-02-15T00:24:07;4.50;99.90
26537;DHT22;14204;51.262;5.488;2023-02-15T00:26:33;4.50;99.90
26537;DHT22;14204;51.262;5.488;2023-02-15T00:28:59;4.50;99.90
26537;DHT22;14204;51.262;5.488;2023-02-15T00:31:26;4.50;99.90
26537;DHT22;14204;51.262;5.488;2023-02-15T00:33:52;4.50;99.90
26537;DHT22;14204;51.262;5.488;2023-02-15T00:36:18;4.50;99.90
26537;DHT22;14204;51.262;5.488;2023-02-15T00:38:43;4.40;99.90
26537;DHT22;14204;51.262;5.488;2023-02-15T00:41:10;4.40;99.90
26537;DHT22;14204;51.262;5.488;2023-02-15T00:43:36;4.40;99.90
26537;DHT22;14204;51.262;5.488;2023-02-15T00:46:03;4.40;99.90
26537;DHT22;14204;51.262;5.488;2023-02-15T00:48:29;4.40;99.90
26537;DHT22;14204;51.262;5.488;2023-02-15T00:50:59;4.40;99.90
26537;DHT22;14204;51.262;5.488;2023-02-15T00:53:26;4.50;99.90
26537;DHT22;14204;51.262;5.488;2023-02-15T00:55:52;4.40;99.90
26537;DHT22;14204;51.262;5.488;2023-02-15T00:58:18;4.40;99.90
26537;DHT22;14204;51.262;5.488;2023-02-15T01:00:45;4.40;99.90
26537;DHT22;14204;51.262;5.488;2023-02-15T01:03:12;4.40;99.90
26537;DHT22;14204;51.262;5.488;2023-02-15T01:05:38;4.40;99.90
26537;DHT22;14204;51.262;5.488;2023-02-15T01:08:04;4.40;99.90
26537;DHT22;14204;51.262;5.488;2023-02-15T01:10:29;4.40;99.90
26537;DHT22;14204;51.262;5.488;2023-02-15T01:12:56;4.30;99.90
26537;DHT22;14204;51.262;5.488;2023-02-15T01:15:22;4.30;99.90
26537;DHT22;14204;51.262;5.488;2023-02-15T01:17:48;4.30;99.90
26537;DHT22;14204;51.262;5.488;2023-02-15T01:20:23;4.20;99.90
26537;DHT22;14204;51.262;5.488;2023-02-15T01:22:49;4.20;99.90
26537;DHT22;14204;51.262;5.488;2023-02-15T01:25:16;4.20;99.90
26537;DHT22;14204;51.262;5.488;2023-02-15T01:27:42;4.10;99.90
26537;DHT22;14204;51.262;5.488;2023-02-15T01:30:09;4.10;99.90
26537;DHT22;14204;51.262;5.488;2023-02-15T01:32:35;4.10;99.90
26537;DHT22;14204;51.262;5.488;2023-02-15T01:35:02;4.10;99.90
26537;DHT22;14204;51.262;5.488;2023-02-15T01:37:30;4.10;99.90
26537;DHT22;14204;51.262;5.488;2023-02-15T01:39:55;4.20;99.90
26537;DHT22;14204;51.262;5.488;2023-02-15T01:42:22;4.10;99.90
26537;DHT22;14204;51.262;5.488;2023-02-15T01:50:02;4.10;99.90
26537;DHT22;14204;51.262;5.488;2023-02-15T01:52:29;4.20;99.90
26537;DHT22;14204;51.262;5.488;2023-02-15T01:54:55;4.10;99.90
26537;DHT22;14204;51.262;5.488;2023-02-15T01:57:23;4.10;99.90
26537;DHT22;14204;51.262;5.488;2023-02-15T01:59:55;4.10;99.90
26537;DHT22;14204;51.262;5.488;2023-02-15T02:02:21;4.10;99.90
26537;DHT22;14204;51.262;5.488;2023-02-15T02:04:51;4.10;99.90
26537;DHT22;14204;51.262;5.488;2023-02-15T02:07:20;4.10;99.90
26537;DHT22;14204;51.262;5.488;2023-02-15T02:09:47;4.00;99.90
26537;DHT22;14204;51.262;5.488;2023-02-15T02:12:15;4.00;99.90
26537;DHT22;14204;51.262;5.488;2023-02-15T02:14:42;4.00;99.90
26537;DHT22;14204;51.262;5.488;2023-02-15T02:17:17;4.00;99.90
26537;DHT22;14204;51.262;5.488;2023-02-15T02:39:07;3.90;99.90
26537;DHT22;14204;51.262;5.488;2023-02-15T02:41:56;3.90;99.90
26537;DHT22;14204;51.262;5.488;2023-02-15T02:47:09;3.80;99.90
26537;DHT22;14204;51.262;5.488;2023-02-15T02:49:42;3.70;99.90
26537;DHT22;14204;51.262;5.488;2023-02-15T02:55:34;3.80;99.90
26537;DHT22;14204;51.262;5.488;2023-02-15T02:58:09;3.80;99.90
26537;DHT22;14204;51.262;5.488;2023-02-15T03:00:40;3.80;99.90
26537;DHT22;14204;51.262;5.488;2023-02-15T03:03:11;3.80;99.90
26537;DHT22;14204;51.262;5.488;2023-02-15T03:05:43;3.80;99.90
26537;DHT22;14204;51.262;5.488;2023-02-15T03:08:10;3.70;99.90
26537;DHT22;14204;51.262;5.488;2023-02-15T03:10:39;3.70;99.90
26537;DHT22;14204;51.262;5.488;2023-02-15T03:13:06;3.70;99.90
26537;DHT22;14204;51.262;5.488;2023-02-15T03:15:36;3.60;99.90
26537;DHT22;14204;51.262;5.488;2023-02-15T03:18:25;3.60;99.90
26537;DHT22;14204;51.262;5.488;2023-02-15T03:20:54;3.60;99.90
26537;DHT22;14204;51.262;5.488;2023-02-15T03:23:23;3.60;99.90
26537;DHT22;14204;51.262;5.488;2023-02-15T03:25:57;3.60;99.90
26537;DHT22;14204;51.262;5.488;2023-02-15T03:28:45;3.60;99.90
26537;DHT22;14204;51.262;5.488;2023-02-15T03:31:13;3.60;99.90
26537;DHT22;14204;51.262;5.488;2023-02-15T03:33:54;3.60;99.90
26537;DHT22;14204;51.262;5.488;2023-02-15T03:36:29;3.60;99.90
26537;DHT22;14204;51.262;5.488;2023-02-15T03:39:38;3.60;99.90
26537;DHT22;14204;51.262;5.488;2023-02-15T03:42:16;3.60;99.90
26537;DHT22;14204;51.262;5.488;2023-02-15T03:47:20;3.60;99.90
26537;DHT22;14204;51.262;5.488;2023-02-15T03:50:16;3.60;99.90
26537;DHT22;14204;51.262;5.488;2023-02-15T03:53:05;3.60;99.90
26537;DHT22;14204;51.262;5.488;2023-02-15T03:55:31;3.60;99.90
26537;DHT22;14204;51.262;5.488;2023-02-15T03:57:58;3.50;99.90
26537;DHT22;14204;51.262;5.488;2023-02-15T04:01:10;3.50;99.90
26537;DHT22;14204;51.262;5.488;2023-02-15T04:04:06;3.40;99.90
26537;DHT22;14204;51.262;5.488;2023-02-15T04:06:32;3.30;99.90
26537;DHT22;14204;51.262;5.488;2023-02-15T04:08:58;3.30;99.90
26537;DHT22;14204;51.262;5.488;2023-02-15T04:11:42;3.40;99.90
26537;DHT22;14204;51.262;5.488;2023-02-15T04:14:08;3.40;99.90
26537;DHT22;14204;51.262;5.488;2023-02-15T04:16:52;3.40;99.90
26537;DHT22;14204;51.262;5.488;2023-02-15T04:19:18;3.50;99.90
26537;DHT22;14204;51.262;5.488;2023-02-15T04:22:02;3.50;99.90
26537;DHT22;14204;51.262;5.488;2023-02-15T04:24:46;3.40;99.90
26537;DHT22;14204;51.262;5.488;2023-02-15T04:27:30;3.40;99.90
26537;DHT22;14204;51.262;5.488;2023-02-15T04:29:55;3.40;99.90
26537;DHT22;14204;51.262;5.488;2023-02-15T04:32:21;3.40;99.90
26537;DHT22;14204;51.262;5.488;2023-02-15T04:34:46;3.40;99.90
26537;DHT22;14204;51.262;5.488;2023-02-15T04:37:12;3.40;99.90
26537;DHT22;14204;51.262;5.488;2023-02-15T04:39:37;3.40;99.90
26537;DHT22;14204;51.262;5.488;2023-02-15T04:42:03;3.40;99.90
26537;DHT22;14204;51.262;5.488;2023-02-15T04:44:29;3.30;99.90
26537;DHT22;14204;51.262;5.488;2023-02-15T04:46:54;3.30;99.90
26537;DHT22;14204;51.262;5.488;2023-02-15T04:49:20;3.20;99.90
26537;DHT22;14204;51.262;5.488;2023-02-15T04:51:46;3.10;99.90
26537;DHT22;14204;51.262;5.488;2023-02-15T04:54:11;3.10;99.90
26537;DHT22;14204;51.262;5.488;2023-02-15T04:56:37;3.20;99.90
26537;DHT22;14204;51.262;5.488;2023-02-15T04:59:04;3.20;99.90
26537;DHT22;14204;51.262;5.488;2023-02-15T05:01:30;3.30;99.90
26537;DHT22;14204;51.262;5.488;2023-02-15T05:03:56;3.20;99.90
26537;DHT22;14204;51.262;5.488;2023-02-15T05:06:22;3.20;99.90
26537;DHT22;14204;51.262;5.488;2023-02-15T05:08:47;3.20;99.90
26537;DHT22;14204;51.262;5.488;2023-02-15T05:11:13;3.10;99.90
26537;DHT22;14204;51.262;5.488;2023-02-15T05:13:39;3.10;99.90
26537;DHT22;14204;51.262;5.488;2023-02-15T05:16:04;3.10;99.90
26537;DHT22;14204;51.262;5.488;2023-02-15T05:18:30;3.10;99.90
26537;DHT22;14204;51.262;5.488;2023-02-15T05:20:55;3.10;99.90
26537;DHT22;14204;51.262;5.488;2023-02-15T05:23:21;3.10;99.90
26537;DHT22;14204;51.262;5.488;2023-02-15T05:25:51;3.10;99.90
26537;DHT22;14204;51.262;5.488;2023-02-15T05:28:36;3.10;99.90
26537;DHT22;14204;51.262;5.488;2023-02-15T05:31:07;3.10;99.90
26537;DHT22;14204;51.262;5.488;2023-02-15T05:33:33;3.10;99.90
26537;DHT22;14204;51.262;5.488;2023-02-15T05:35:59;2.90;99.90
26537;DHT22;14204;51.262;5.488;2023-02-15T05:38:25;3.00;99.90
26537;DHT22;14204;51.262;5.488;2023-02-15T05:40:51;3.00;99.90
26537;DHT22;14204;51.262;5.488;2023-02-15T05:43:17;3.00;99.90
26537;DHT22;14204;51.262;5.488;2023-02-15T05:45:53;3.00;99.90
26537;DHT22;14204;51.262;5.488;2023-02-15T05:48:20;3.00;99.90
26537;DHT22;14204;51.262;5.488;2023-02-15T05:50:46;2.80;99.90
26537;DHT22;14204;51.262;5.488;2023-02-15T05:53:12;2.80;99.90
26537;DHT22;14204;51.262;5.488;2023-02-15T05:55:39;2.70;99.90
26537;DHT22;14204;51.262;5.488;2023-02-15T05:58:05;2.80;99.90
26537;DHT22;14204;51.262;5.488;2023-02-15T06:00:31;2.70;99.90
26537;DHT22;14204;51.262;5.488;2023-02-15T06:02:57;2.80;99.90
26537;DHT22;14204;51.262;5.488;2023-02-15T06:05:23;2.70;99.90
26537;DHT22;14204;51.262;5.488;2023-02-15T06:07:48;2.70;99.90
26537;DHT22;14204;51.262;5.488;2023-02-15T06:10:14;2.70;99.90
26537;DHT22;14204;51.262;5.488;2023-02-15T06:12:39;2.70;99.90
26537;DHT22;14204;51.262;5.488;2023-02-15T06:15:05;2.70;99.90
26537;DHT22;14204;51.262;5.488;2023-02-15T06:17:31;2.80;99.90
26537;DHT22;14204;51.262;5.488;2023-02-15T06:19:57;2.80;99.90
26537;DHT22;14204;51.262;5.488;2023-02-15T06:22:22;2.80;99.90
26537;DHT22;14204;51.262;5.488;2023-02-15T06:24:48;2.90;99.90
26537;DHT22;14204;51.262;5.488;2023-02-15T06:27:13;2.80;99.90
26537;DHT22;14204;51.262;5.488;2023-02-15T06:29:39;2.80;99.90
26537;DHT22;14204;51.262;5.488;2023-02-15T06:32:05;2.90;99.90
26537;DHT22;14204;51.262;5.488;2023-02-15T06:34:31;2.90;99.90
26537;DHT22;14204;51.262;5.488;2023-02-15T06:36:57;2.90;99.90
26537;DHT22;14204;51.262;5.488;2023-02-15T06:39:22;2.90;99.90
26537;DHT22;14204;51.262;5.488;2023-02-15T06:41:48;3.00;99.90
26537;DHT22;14204;51.262;5.488;2023-02-15T06:44:13;3.00;99.90
26537;DHT22;14204;51.262;5.488;2023-02-15T06:46:39;2.90;99.90
26537;DHT22;14204;51.262;5.488;2023-02-15T06:49:05;2.90;99.90
26537;DHT22;14204;51.262;5.488;2023-02-15T06:51:30;2.90;99.90
26537;DHT22;14204;51.262;5.488;2023-02-15T06:53:56;3.00;99.90
26537;DHT22;14204;51.262;5.488;2023-02-15T06:56:22;3.00;99.90
26537;DHT22;14204;51.262;5.488;2023-02-15T06:58:47;3.00;99.90
26537;DHT22;14204;51.262;5.488;2023-02-15T07:01:15;3.00;99.90
26537;DHT22;14204;51.262;5.488;2023-02-15T07:03:40;2.90;99.90
26537;DHT22;14204;51.262;5.488;2023-02-15T07:06:07;2.80;99.90
26537;DHT22;14204;51.262;5.488;2023-02-15T07:08:35;2.90;99.90
26537;DHT22;14204;51.262;5.488;2023-02-15T07:11:01;2.80;99.90
26537;DHT22;14204;51.262;5.488;2023-02-15T07:13:46;2.80;99.90
26537;DHT22;14204;51.262;5.488;2023-02-15T07:16:11;2.80;99.90
26537;DHT22;14204;51.262;5.488;2023-02-15T07:18:37;2.80;99.90
26537;DHT22;14204;51.262;5.488;2023-02-15T07:21:03;2.70;99.90
26537;DHT22;14204;51.262;5.488;2023-02-15T07:23:29;2.80;99.90
26537;DHT22;14204;51.262;5.488;2023-02-15T07:25:58;2.90;99.90
26537;DHT22;14204;51.262;5.488;2023-02-15T07:28:24;2.80;99.90
26537;DHT22;14204;51.262;5.488;2023-02-15T07:30:49;2.80;99.90
26537;DHT22;14204;51.262;5.488;2023-02-15T07:33:15;2.80;99.90
26537;DHT22;14204;51.262;5.488;2023-02-15T07:35:51;2.80;99.90
26537;DHT22;14204;51.262;5.488;2023-02-15T07:38:17;2.90;99.90
26537;DHT22;14204;51.262;5.488;2023-02-15T07:40:44;2.90;99.90
26537;DHT22;14204;51.262;5.488;2023-02-15T07:43:10;2.80;99.90
26537;DHT22;14204;51.262;5.488;2023-02-15T07:45:36;2.90;99.90
26537;DHT22;14204;51.262;5.488;2023-02-15T07:48:02;2.90;99.90
26537;DHT22;14204;51.262;5.488;2023-02-15T07:50:28;2.90;99.90
26537;DHT22;14204;51.262;5.488;2023-02-15T07:52:53;2.80;99.90
26537;DHT22;14204;51.262;5.488;2023-02-15T07:55:19;2.80;99.90
26537;DHT22;14204;51.262;5.488;2023-02-15T07:57:46;2.80;99.90
26537;DHT22;14204;51.262;5.488;2023-02-15T08:00:14;2.90;99.90
26537;DHT22;14204;51.262;5.488;2023-02-15T08:02:40;2.90;99.90
26537;DHT22;14204;51.262;5.488;2023-02-15T08:05:06;2.90;99.90
26537;DHT22;14204;51.262;5.488;2023-02-15T08:07:32;3.10;99.90
26537;DHT22;14204;51.262;5.488;2023-02-15T08:09:57;3.10;99.90
26537;DHT22;14204;51.262;5.488;2023-02-15T08:12:26;3.10;99.90
26537;DHT22;14204;51.262;5.488;2023-02-15T08:14:51;3.20;99.90
26537;DHT22;14204;51.262;5.488;2023-02-15T08:17:17;3.20;99.90
26537;DHT22;14204;51.262;5.488;2023-02-15T08:19:43;3.20;99.90
26537;DHT22;14204;51.262;5.488;2023-02-15T08:22:12;3.20;99.90
26537;DHT22;14204;51.262;5.488;2023-02-15T08:24:38;3.40;99.90
26537;DHT22;14204;51.262;5.488;2023-02-15T08:27:05;3.40;99.90
26537;DHT22;14204;51.262;5.488;2023-02-15T08:29:33;3.60;99.90
26537;DHT22;14204;51.262;5.488;2023-02-15T08:32:07;3.60;99.90
26537;DHT22;14204;51.262;5.488;2023-02-15T08:34:37;3.70;99.90
26537;DHT22;14204;51.262;5.488;2023-02-15T08:37:03;3.90;99.90
26537;DHT22;14204;51.262;5.488;2023-02-15T08:39:29;4.00;99.90
26537;DHT22;14204;51.262;5.488;2023-02-15T08:41:55;4.10;99.90
26537;DHT22;14204;51.262;5.488;2023-02-15T08:44:20;4.20;99.90
26537;DHT22;14204;51.262;5.488;2023-02-15T08:46:47;4.20;99.90
26537;DHT22;14204;51.262;5.488;2023-02-15T08:49:16;4.40;99.90
26537;DHT22;14204;51.262;5.488;2023-02-15T08:51:43;4.60;99.90
26537;DHT22;14204;51.262;5.488;2023-02-15T08:54:12;4.70;99.90
26537;DHT22;14204;51.262;5.488;2023-02-15T08:56:40;4.90;99.90
26537;DHT22;14204;51.262;5.488;2023-02-15T08:59:07;5.00;99.90
26537;DHT22;14204;51.262;5.488;2023-02-15T09:01:36;5.00;99.90
26537;DHT22;14204;51.262;5.488;2023-02-15T09:04:04;5.10;99.90
26537;DHT22;14204;51.262;5.488;2023-02-15T09:06:31;5.20;99.90
26537;DHT22;14204;51.262;5.488;2023-02-15T09:08:57;5.30;99.90
26537;DHT22;14204;51.262;5.488;2023-02-15T09:11:24;5.40;99.90
26537;DHT22;14204;51.262;5.488;2023-02-15T09:13:58;5.50;99.90
26537;DHT22;14204;51.262;5.488;2023-02-15T09:16:27;5.60;99.90
26537;DHT22;14204;51.262;5.488;2023-02-15T09:18:53;5.70;99.90
26537;DHT22;14204;51.262;5.488;2023-02-15T09:21:21;5.70;99.90
26537;DHT22;14204;51.262;5.488;2023-02-15T09:23:48;5.80;99.90
26537;DHT22;14204;51.262;5.488;2023-02-15T09:26:19;5.90;99.90
26537;DHT22;14204;51.262;5.488;2023-02-15T09:28:46;6.10;99.90
26537;DHT22;14204;51.262;5.488;2023-02-15T09:33:42;6.20;99.90
26537;DHT22;14204;51.262;5.488;2023-02-15T09:38:43;6.50;99.90
26537;DHT22;14204;51.262;5.488;2023-02-15T09:49:02;7.10;99.90
26537;DHT22;14204;51.262;5.488;2023-02-15T09:52:04;7.30;99.90
26537;DHT22;14204;51.262;5.488;2023-02-15T10:22:09;9.20;99.90
26537;DHT22;14204;51.262;5.488;2023-02-15T10:27:13;9.60;99.90
26537;DHT22;14204;51.262;5.488;2023-02-15T10:32:26;9.90;99.90
26537;DHT22;14204;51.262;5.488;2023-02-15T10:38:20;10.10;99.90
26537;DHT22;14204;51.262;5.488;2023-02-15T10:43:58;10.50;99.90
26537;DHT22;14204;51.262;5.488;2023-02-15T11:00:18;10.90;99.90
26537;DHT22;14204;51.262;5.488;2023-02-15T11:05:24;11.20;99.90
26537;DHT22;14204;51.262;5.488;2023-02-15T11:07:54;11.30;99.90
26537;DHT22;14204;51.262;5.488;2023-02-15T11:12:52;11.50;99.90
26537;DHT22;14204;51.262;5.488;2023-02-15T11:18:35;11.60;99.90
26537;DHT22;14204;51.262;5.488;2023-02-15T11:23:35;11.80;99.90
26537;DHT22;14204;51.262;5.488;2023-02-15T11:26:03;11.80;99.90
26537;DHT22;14204;51.262;5.488;2023-02-15T11:30:57;12.00;99.90
26537;DHT22;14204;51.262;5.488;2023-02-15T11:33:29;12.00;99.90
26537;DHT22;14204;51.262;5.488;2023-02-15T11:36:13;12.10;99.90
26537;DHT22;14204;51.262;5.488;2023-02-15T11:38:42;12.20;99.90
26537;DHT22;14204;51.262;5.488;2023-02-15T11:41:15;12.20;99.90
26537;DHT22;14204;51.262;5.488;2023-02-15T11:44:03;12.40;99.90
26537;DHT22;14204;51.262;5.488;2023-02-15T11:46:30;12.50;99.90
26537;DHT22;14204;51.262;5.488;2023-02-15T11:48:55;12.60;99.90
26537;DHT22;14204;51.262;5.488;2023-02-15T11:51:22;12.60;99.90
26537;DHT22;14204;51.262;5.488;2023-02-15T11:53:49;12.70;99.90
26537;DHT22;14204;51.262;5.488;2023-02-15T11:56:16;12.70;99.90
26537;DHT22;14204;51.262;5.488;2023-02-15T11:58:47;12.80;99.90
26537;DHT22;14204;51.262;5.488;2023-02-15T12:01:31;12.90;99.90
26537;DHT22;14204;51.262;5.488;2023-02-15T12:04:13;13.00;99.90
26537;DHT22;14204;51.262;5.488;2023-02-15T12:06:51;13.00;99.90
26537;DHT22;14204;51.262;5.488;2023-02-15T12:09:52;13.10;99.90
26537;DHT22;14204;51.262;5.488;2023-02-15T12:12:29;13.10;99.90
26537;DHT22;14204;51.262;5.488;2023-02-15T12:15:01;13.20;99.90
26537;DHT22;14204;51.262;5.488;2023-02-15T12:17:29;13.20;99.90
26537;DHT22;14204;51.262;5.488;2023-02-15T12:19:57;13.30;99.90
26537;DHT22;14204;51.262;5.488;2023-02-15T12:22:28;13.30;99.90
26537;DHT22;14204;51.262;5.488;2023-02-15T12:24:56;13.40;99.90
26537;DHT22;14204;51.262;5.488;2023-02-15T12:27:31;13.40;99.90
26537;DHT22;14204;51.262;5.488;2023-02-15T12:30:01;13.40;99.90
26537;DHT22;14204;51.262;5.488;2023-02-15T12:32:33;13.30;99.90
26537;DHT22;14204;51.262;5.488;2023-02-15T12:41:19;13.10;99.90
26537;DHT22;14204;51.262;5.488;2023-02-15T12:43:41;13.20;99.90
26537;DHT22;14204;51.262;5.488;2023-02-15T12:46:21;13.20;99.90
26537;DHT22;14204;51.262;5.488;2023-02-15T12:48:49;13.20;99.90
26537;DHT22;14204;51.262;5.488;2023-02-15T12:51:45;13.20;99.90
26537;DHT22;14204;51.262;5.488;2023-02-15T12:56:52;13.20;99.90
26537;DHT22;14204;51.262;5.488;2023-02-15T12:59:18;13.30;99.90
26537;DHT22;14204;51.262;5.488;2023-02-15T13:01:47;13.30;99.90
26537;DHT22;14204;51.262;5.488;2023-02-15T13:04:28;13.30;99.90
26537;DHT22;14204;51.262;5.488;2023-02-15T13:07:02;13.40;99.90
26537;DHT22;14204;51.262;5.488;2023-02-15T13:11:59;13.40;99.90
26537;DHT22;14204;51.262;5.488;2023-02-15T13:14:34;13.40;99.90
26537;DHT22;14204;51.262;5.488;2023-02-15T13:17:03;13.40;99.90
26537;DHT22;14204;51.262;5.488;2023-02-15T13:19:31;13.40;99.90
26537;DHT22;14204;51.262;5.488;2023-02-15T13:22:04;13.40;99.90
26537;DHT22;14204;51.262;5.488;2023-02-15T13:24:41;13.40;99.90
26537;DHT22;14204;51.262;5.488;2023-02-15T13:27:12;13.40;99.90
26537;DHT22;14204;51.262;5.488;2023-02-15T13:29:40;13.40;99.90
26537;DHT22;14204;51.262;5.488;2023-02-15T13:32:23;13.40;99.90
26537;DHT22;14204;51.262;5.488;2023-02-15T13:34:52;13.50;99.90
26537;DHT22;14204;51.262;5.488;2023-02-15T13:37:53;13.50;99.90
26537;DHT22;14204;51.262;5.488;2023-02-15T13:46:07;13.70;99.90
26537;DHT22;14204;51.262;5.488;2023-02-15T13:49:25;13.70;99.90
26537;DHT22;14204;51.262;5.488;2023-02-15T13:54:47;13.70;99.90
26537;DHT22;14204;51.262;5.488;2023-02-15T14:00:46;13.70;99.90
26537;DHT22;14204;51.262;5.488;2023-02-15T14:06:08;13.70;99.90
26537;DHT22;14204;51.262;5.488;2023-02-15T14:11:48;13.50;99.90
26537;DHT22;14204;51.262;5.488;2023-02-15T14:19:50;13.60;99.90
26537;DHT22;14204;51.262;5.488;2023-02-15T14:22:38;13.70;99.90
26537;DHT22;14204;51.262;5.488;2023-02-15T14:30:37;13.60;99.90
26537;DHT22;14204;51.262;5.488;2023-02-15T14:35:47;13.50;99.90
26537;DHT22;14204;51.262;5.488;2023-02-15T14:38:15;13.50;99.90
26537;DHT22;14204;51.262;5.488;2023-02-15T14:40:54;13.50;99.90
26537;DHT22;14204;51.262;5.488;2023-02-15T14:46:36;13.60;99.90
26537;DHT22;14204;51.262;5.488;2023-02-15T14:49:10;13.50;99.90
26537;DHT22;14204;51.262;5.488;2023-02-15T15:02:17;13.40;99.90
26537;DHT22;14204;51.262;5.488;2023-02-15T15:04:58;13.40;99.90
26537;DHT22;14204;51.262;5.488;2023-02-15T15:07:36;13.30;99.90
26537;DHT22;14204;51.262;5.488;2023-02-15T15:12:55;13.20;99.90
26537;DHT22;14204;51.262;5.488;2023-02-15T15:18:08;13.20;99.90
26537;DHT22;14204;51.262;5.488;2023-02-15T15:25:50;13.10;99.90
26537;DHT22;14204;51.262;5.488;2023-02-15T15:42:18;12.90;99.90
26537;DHT22;14204;51.262;5.488;2023-02-15T15:47:42;12.80;99.90
26537;DHT22;14204;51.262;5.488;2023-02-15T15:50:17;12.70;99.90
26537;DHT22;14204;51.262;5.488;2023-02-15T15:52:53;12.70;99.90
26537;DHT22;14204;51.262;5.488;2023-02-15T15:55:22;12.70;99.90
26537;DHT22;14204;51.262;5.488;2023-02-15T15:57:51;12.70;99.90
26537;DHT22;14204;51.262;5.488;2023-02-15T16:00:32;12.60;99.90
26537;DHT22;14204;51.262;5.488;2023-02-15T16:02:58;12.60;99.90
26537;DHT22;14204;51.262;5.488;2023-02-15T16:05:24;12.60;99.90
26537;DHT22;14204;51.262;5.488;2023-02-15T16:07:50;12.50;99.90
26537;DHT22;14204;51.262;5.488;2023-02-15T16:10:24;12.40;99.90
26537;DHT22;14204;51.262;5.488;2023-02-15T16:12:51;12.50;99.90
26537;DHT22;14204;51.262;5.488;2023-02-15T16:15:20;12.50;99.90
26537;DHT22;14204;51.262;5.488;2023-02-15T16:17:53;12.40;99.90
26537;DHT22;14204;51.262;5.488;2023-02-15T16:20:31;12.30;99.90
26537;DHT22;14204;51.262;5.488;2023-02-15T16:28:53;12.30;99.90
26537;DHT22;14204;51.262;5.488;2023-02-15T16:31:21;12.20;99.90
26537;DHT22;14204;51.262;5.488;2023-02-15T16:33:53;12.20;99.90
26537;DHT22;14204;51.262;5.488;2023-02-15T16:36:22;12.20;99.90
26537;DHT22;14204;51.262;5.488;2023-02-15T16:41:27;12.00;99.90
26537;DHT22;14204;51.262;5.488;2023-02-15T16:43:55;11.90;99.90
26537;DHT22;14204;51.262;5.488;2023-02-15T16:46:31;11.90;99.90
26537;DHT22;14204;51.262;5.488;2023-02-15T16:49:04;11.90;99.90
26537;DHT22;14204;51.262;5.488;2023-02-15T16:51:32;11.90;99.90
26537;DHT22;14204;51.262;5.488;2023-02-15T16:54:05;11.80;99.90
26537;DHT22;14204;51.262;5.488;2023-02-15T16:56:31;11.70;99.90
26537;DHT22;14204;51.262;5.488;2023-02-15T16:58:59;11.70;99.90
26537;DHT22;14204;51.262;5.488;2023-02-15T17:01:31;11.70;99.90
26537;DHT22;14204;51.262;5.488;2023-02-15T17:09:28;11.50;99.90
26537;DHT22;14204;51.262;5.488;2023-02-15T17:11:54;11.50;99.90
26537;DHT22;14204;51.262;5.488;2023-02-15T17:14:28;11.40;99.90
26537;DHT22;14204;51.262;5.488;2023-02-15T17:16:59;11.30;99.90
26537;DHT22;14204;51.262;5.488;2023-02-15T17:19:31;11.30;99.90
26537;DHT22;14204;51.262;5.488;2023-02-15T17:21:58;11.30;99.90
26537;DHT22;14204;51.262;5.488;2023-02-15T17:26:59;11.30;99.90
26537;DHT22;14204;51.262;5.488;2023-02-15T17:29:43;11.20;99.90
26537;DHT22;14204;51.262;5.488;2023-02-15T17:32:17;11.20;99.90
26537;DHT22;14204;51.262;5.488;2023-02-15T17:35:29;11.10;99.90
26537;DHT22;14204;51.262;5.488;2023-02-15T17:42:43;11.00;99.90
26537;DHT22;14204;51.262;5.488;2023-02-15T17:45:09;10.90;99.90
26537;DHT22;14204;51.262;5.488;2023-02-15T17:47:34;11.00;99.90
26537;DHT22;14204;51.262;5.488;2023-02-15T17:50:03;10.90;99.90
26537;DHT22;14204;51.262;5.488;2023-02-15T17:52:30;10.80;99.90
26537;DHT22;14204;51.262;5.488;2023-02-15T17:54:56;10.80;99.90
26537;DHT22;14204;51.262;5.488;2023-02-15T17:57:40;10.70;99.90
26537;DHT22;14204;51.262;5.488;2023-02-15T18:00:06;10.70;99.90
26537;DHT22;14204;51.262;5.488;2023-02-15T18:02:51;10.60;99.90
26537;DHT22;14204;51.262;5.488;2023-02-15T18:05:35;10.60;99.90
26537;DHT22;14204;51.262;5.488;2023-02-15T18:08:22;10.60;99.90
26537;DHT22;14204;51.262;5.488;2023-02-15T18:11:09;10.70;99.90
26537;DHT22;14204;51.262;5.488;2023-02-15T18:13:54;10.60;99.90
26537;DHT22;14204;51.262;5.488;2023-02-15T18:16:24;10.60;99.90
26537;DHT22;14204;51.262;5.488;2023-02-15T18:18:51;10.50;99.90
26537;DHT22;14204;51.262;5.488;2023-02-15T18:21:17;10.50;99.90
26537;DHT22;14204;51.262;5.488;2023-02-15T18:23:43;10.40;99.90
26537;DHT22;14204;51.262;5.488;2023-02-15T18:26:16;10.40;99.90
26537;DHT22;14204;51.262;5.488;2023-02-15T18:28:41;10.40;99.90
26537;DHT22;14204;51.262;5.488;2023-02-15T18:31:07;10.40;99.90
26537;DHT22;14204;51.262;5.488;2023-02-15T18:33:34;10.40;99.90
26537;DHT22;14204;51.262;5.488;2023-02-15T18:36:02;10.30;99.90
26537;DHT22;14204;51.262;5.488;2023-02-15T18:38:29;10.20;99.90
26537;DHT22;14204;51.262;5.488;2023-02-15T18:40:55;10.30;99.90
26537;DHT22;14204;51.262;5.488;2023-02-15T18:43:20;10.20;99.90
26537;DHT22;14204;51.262;5.488;2023-02-15T18:45:46;10.20;99.90
26537;DHT22;14204;51.262;5.488;2023-02-15T18:48:11;10.20;99.90
26537;DHT22;14204;51.262;5.488;2023-02-15T18:50:38;10.20;99.90
26537;DHT22;14204;51.262;5.488;2023-02-15T18:53:06;10.10;99.90
26537;DHT22;14204;51.262;5.488;2023-02-15T18:55:32;10.10;99.90
26537;DHT22;14204;51.262;5.488;2023-02-15T18:57:59;10.10;99.90
26537;DHT22;14204;51.262;5.488;2023-02-15T19:00:27;10.10;99.90
26537;DHT22;14204;51.262;5.488;2023-02-15T19:02:53;10.10;99.90
26537;DHT22;14204;51.262;5.488;2023-02-15T19:05:20;10.10;99.90
26537;DHT22;14204;51.262;5.488;2023-02-15T19:07:47;10.00;99.90
26537;DHT22;14204;51.262;5.488;2023-02-15T19:10:32;10.00;99.90
26537;DHT22;14204;51.262;5.488;2023-02-15T19:12:58;10.00;99.90
26537;DHT22;14204;51.262;5.488;2023-02-15T19:15:26;9.90;99.90
26537;DHT22;14204;51.262;5.488;2023-02-15T19:17:53;9.80;99.90
26537;DHT22;14204;51.262;5.488;2023-02-15T19:20:24;9.80;99.90
26537;DHT22;14204;51.262;5.488;2023-02-15T19:22:51;9.70;99.90
26537;DHT22;14204;51.262;5.488;2023-02-15T19:25:23;9.60;99.90
26537;DHT22;14204;51.262;5.488;2023-02-15T19:27:50;9.60;99.90
26537;DHT22;14204;51.262;5.488;2023-02-15T19:30:28;9.60;99.90
26537;DHT22;14204;51.262;5.488;2023-02-15T19:32:55;9.60;99.90
26537;DHT22;14204;51.262;5.488;2023-02-15T19:35:25;9.60;99.90
26537;DHT22;14204;51.262;5.488;2023-02-15T19:37:56;9.50;99.90